Aérodrome :
LOGIN :

S'inscrire | Disclaimer

   EN    FR    IT 

 










Légende :    VFR   VFR Marginal   IFR   IFR Intensif   IFR Très Intensif
Visi : 
Plafond : 
>= 8 km
>= 3000ft
5 à 8 km
1000 à 3000 ft
1500m à 5 km
500 à 1000 ft
800 à 1500m
200 à 500 ft
< 800m
< 200 ft
Symboles :   Orages  Brouillard  Fortes neiges  Fortes précipitations  Vent > 20 kt
SIGMETs :   Divers  Orages  Givrage  Turbulence  Onde Orograph.  Cendres Volcan.






- Altitude de l'aérodrome : 370 ft


EBBE - Beauvechain AB

DERNIER METAR :
  • 150755Z AUTO 24014KT 9999 FEW024/// SCT030/// 07/04 Q0998 BLU

METARs EXPIRÉS :
  • 150725Z AUTO 24014KT 9999 NCD 07/04 Q0998 BLU
  • 150655Z AUTO 23018KT 9999 FEW027/// 08/05 Q0997 BLU
  • 150625Z AUTO 23016KT 9999 FEW018/// SCT025/// BKN065/// 08/06 Q0996 BLU
  • 150555Z AUTO 25013KT 9999 FEW012/// SCT015/// BKN018/// 08/07 Q0995 WHT
  • 150525Z AUTO 24020KT 9999 -RA FEW012/// SCT017/// BKN024/// 08/07 Q0995 WHT

Prévision TAF périmée.



MET'MAP, la Météo Aéronautique d'un coup d'oeil ! - Copyright ORBIFLY Décembre 2007 - Disclaimer

ORBIFLY MET'MAP TEAM :

Programmation & Développement : Alexandra Zaïnal
Sur une idée originale de : Baudouin d'Aumeries
Assistance à la programmation : Marc-Olivier Méhu
Soutien technique & logistique : Manuel Goepfert

Contact : metmap@orbifly.com




SOURCES & CREDITS :

   NOAA